Address 0x431d29d9389a060b206db1d3f50250582cf220b5 1

Overview

Balance:
5.387491841644811369 BNB

Token:
My Name Tag:
Not Available

Txn Hash Method
Block
From
To
Value [Txn Fee]
0x286fab280aaa92953c8dbc71e7c8efe3231ef3987bda308adb8a59ca2e3aeb56Melt85803782021-05-05 16:21:20141 days 8 hrs ago0x431d29d9389a060b206db1d3f50250582cf220b5OUT 0x24d968b7fb5cfb666ac2fa9339a5121ebbdefab90.015 BNB0.0048419
0x7f3164242728808d7338706eff000b8cef502c59859185d01e752d6f5883a86aMelt85803032021-05-05 16:17:35141 days 8 hrs ago0x431d29d9389a060b206db1d3f50250582cf220b5OUT 0x24d968b7fb5cfb666ac2fa9339a5121ebbdefab90.015 BNB0.00443052
0xd63a02628d0e659736f95c3ee3e8262cf8a9657e8de4ed9ff2dff59151901308Melt85802762021-05-05 16:16:14141 days 8 hrs ago0x431d29d9389a060b206db1d3f50250582cf220b5OUT 0x24d968b7fb5cfb666ac2fa9339a5121ebbdefab90.015 BNB0.00451026
0x0431e04bd8658642b9cef47c385018af8cde89f459d3d39e5baac039134d8d24Melt85802542021-05-05 16:15:08141 days 8 hrs ago0x431d29d9389a060b206db1d3f50250582cf220b5OUT 0x24d968b7fb5cfb666ac2fa9339a5121ebbdefab90.015 BNB0.00468852
0x8af89189cbffc1d37cff1dfdd1a201170ac603769fa4fa7e571f9e0b353490ffMelt85802082021-05-05 16:12:50141 days 8 hrs ago0x431d29d9389a060b206db1d3f50250582cf220b5OUT 0x24d968b7fb5cfb666ac2fa9339a5121ebbdefab90.015 BNB0.00450997
0xb08743e68522f6da7d1a24f0c4085de546ec716c5aa11e9b9b744fc3e52499b5Melt85801842021-05-05 16:11:38141 days 8 hrs ago0x431d29d9389a060b206db1d3f50250582cf220b5OUT 0x24d968b7fb5cfb666ac2fa9339a5121ebbdefab90.015 BNB0.00450997
0x61890890a5adacbbff23fa69392ffa2f5504ae8e39bf7b68dadca5474c1320eeMelt85801472021-05-05 16:09:47141 days 8 hrs ago0x431d29d9389a060b206db1d3f50250582cf220b5OUT 0x24d968b7fb5cfb666ac2fa9339a5121ebbdefab90.015 BNB0.00466026
0xe6d06e02b3d50fbcb74b085ef42279fb38fc04186d876f2dabcfae4a51079aa9Melt85801162021-05-05 16:08:14141 days 8 hrs ago0x431d29d9389a060b206db1d3f50250582cf220b5OUT 0x24d968b7fb5cfb666ac2fa9339a5121ebbdefab90.015 BNB0.00453852
0xc471de113ad21729b542c8288ad730a2102b3473391d7d51c207774dce8e8745Melt85800962021-05-05 16:07:14141 days 8 hrs ago0x431d29d9389a060b206db1d3f50250582cf220b5OUT 0x24d968b7fb5cfb666ac2fa9339a5121ebbdefab90.015 BNB0.00451026
0x5cecdc364126af91816b8a6c7f4572a4eeb601b366f55cab7f4f352080ef36e5Melt85800702021-05-05 16:05:56141 days 8 hrs ago0x431d29d9389a060b206db1d3f50250582cf220b5OUT 0x24d968b7fb5cfb666ac2fa9339a5121ebbdefab90.015 BNB0.00453852
0x29b6d25e84dbac410d4ab7d1f03a476179e5c7d07ec38995d20d94bec0146157Melt85800552021-05-05 16:05:11141 days 8 hrs ago0x431d29d9389a060b206db1d3f50250582cf220b5OUT 0x24d968b7fb5cfb666ac2fa9339a5121ebbdefab90.015 BNB0.00453852
0xa967e3ea11c0201ff1249f2545e6b5bb16f464769a5996d3ea699fe7753998acMelt85800352021-05-05 16:04:11141 days 8 hrs ago0x431d29d9389a060b206db1d3f50250582cf220b5OUT 0x24d968b7fb5cfb666ac2fa9339a5121ebbdefab90.015 BNB0.00465997
0xcdb39b7d2ca81d5417828d3c6565604f06b0f570f43ae3a288bb135d824b9654Melt85800172021-05-05 16:03:17141 days 8 hrs ago0x431d29d9389a060b206db1d3f50250582cf220b5OUT 0x24d968b7fb5cfb666ac2fa9339a5121ebbdefab90.015 BNB0.00462252
0xcee9371b49f9f0b0909488a9e33e2a22ab5ca5724e441635c391fe4b648e0ea2Melt85800062021-05-05 16:02:44141 days 8 hrs ago0x431d29d9389a060b206db1d3f50250582cf220b5OUT 0x24d968b7fb5cfb666ac2fa9339a5121ebbdefab90.015 BNB0.00453881
0xe509d175e5b79d0e3d08ab03e8bb928acfdff44ef55c89e8b066596036f5b699Melt85799742021-05-05 16:01:08141 days 8 hrs ago0x431d29d9389a060b206db1d3f50250582cf220b5OUT 0x24d968b7fb5cfb666ac2fa9339a5121ebbdefab90.015 BNB0.00462281
0xb5494afeab41a6060650660d76f1aae49e8443fd82bdc150480318f7802de5c3Melt85799572021-05-05 16:00:17141 days 8 hrs ago0x431d29d9389a060b206db1d3f50250582cf220b5OUT 0x24d968b7fb5cfb666ac2fa9339a5121ebbdefab90.015 BNB0.00462252
0x7d27eba1d24c0dd59ab21153f6bc3eea62490df00f55ed6df668189f8b475682Melt85799332021-05-05 15:59:05141 days 8 hrs ago0x431d29d9389a060b206db1d3f50250582cf220b5OUT 0x24d968b7fb5cfb666ac2fa9339a5121ebbdefab90.015 BNB0.0047724
0x1b3ba1fc0e54c24f6aa7541715f8093945da454645ce02ae6eece8bf80f23a90Melt85799002021-05-05 15:57:26141 days 8 hrs ago0x431d29d9389a060b206db1d3f50250582cf220b5OUT 0x24d968b7fb5cfb666ac2fa9339a5121ebbdefab90.015 BNB0.00451026
0xc0e6b4f9baca18cf423ad4fb1731ca26e8b598429f7b66c4b859ef21bc94b6a2Melt85798892021-05-05 15:56:53141 days 8 hrs ago0x431d29d9389a060b206db1d3f50250582cf220b5OUT 0x24d968b7fb5cfb666ac2fa9339a5121ebbdefab90.015 BNB0.00450997
0xee1681b8c86237012f21b285fbadc9014bc3ead2903e528ee1bf82b4330544bdMelt85798632021-05-05 15:55:35141 days 8 hrs ago0x431d29d9389a060b206db1d3f50250582cf220b5OUT 0x24d968b7fb5cfb666ac2fa9339a5121ebbdefab90.015 BNB0.00462281
0x7ab3e214635d5f9b2bb13d3d84824c0c6c0d39ec439ec6f90c10315c6b693f50Melt85798342021-05-05 15:54:08141 days 9 hrs ago0x431d29d9389a060b206db1d3f50250582cf220b5OUT 0x24d968b7fb5cfb666ac2fa9339a5121ebbdefab90.015 BNB0.00453852
0x7f663bbd5d1e37ac40dc034ecb9beab7cf5e7bfc634a3625b8a79b7df58dcce8Melt85798192021-05-05 15:53:23141 days 9 hrs ago0x431d29d9389a060b206db1d3f50250582cf220b5OUT 0x24d968b7fb5cfb666ac2fa9339a5121ebbdefab90.015 BNB0.00472817
0xc3468cbc9686680b041d76c76a3ae3f3735cee17fa714732be9644d6a33f9268Melt85797702021-05-05 15:50:56141 days 9 hrs ago0x431d29d9389a060b206db1d3f50250582cf220b5OUT 0x24d968b7fb5cfb666ac2fa9339a5121ebbdefab90.015 BNB0.00450997
0xaed5fe7feda7b912fafe1d66f9e57c847bb4bc9037cc93cce7b4d8158cb455e2Melt85797582021-05-05 15:50:20141 days 9 hrs ago0x431d29d9389a060b206db1d3f50250582cf220b5OUT 0x24d968b7fb5cfb666ac2fa9339a5121ebbdefab90.015 BNB0.00450997
0xf81f8adaf2a52375bb8c548ce72a44d71f5d55cf99e40a1eb6b5d3abd69d5f23Melt85797482021-05-05 15:49:50141 days 9 hrs ago0x431d29d9389a060b206db1d3f50250582cf220b5OUT 0x24d968b7fb5cfb666ac2fa9339a5121ebbdefab90.015 BNB0.00451026
[ Download CSV Export 
Latest 9 internal transactions
Parent Txn Hash Block From To Value
0x12a5d9ca62ab75b43aee46815e22f467fe7794fde0fded6c539e6cacc8902e6985791922021-05-05 15:22:02141 days 9 hrs ago 0xebc212e2e4e9fd536faa863011efe57ea0465bbe0x431d29d9389a060b206db1d3f50250582cf220b51.967793586623155625 BNB
0xcdbd6d557b37490a79748887fec6715e84084022eecdfaec530de00321d9a67584702332021-05-01 20:28:16145 days 4 hrs ago 0xedb78495c6289c27fd37dcd33b64991f429c76620x431d29d9389a060b206db1d3f50250582cf220b50.036914357152178871 BNB
0x67c55f562a23722f5e14823a8dca2dc96d6a5c78737aef63907490bd9461c81a84697172021-05-01 20:02:28145 days 4 hrs ago 0xedb78495c6289c27fd37dcd33b64991f429c76620x431d29d9389a060b206db1d3f50250582cf220b54.698753489726050624 BNB
0x8f09e915b52e5a71d681f36d3f45fd7f92cbd6bbb92bc9cf22de06a270feec5d84155612021-04-29 22:54:36147 days 1 hr ago 0xedb78495c6289c27fd37dcd33b64991f429c76620x431d29d9389a060b206db1d3f50250582cf220b53.844559326913204615 BNB
0x2613ede1dcddb974de7817ae6f1a1158bca3efd73a030cc2612f7b394fb2d0f483994412021-04-29 9:28:34147 days 15 hrs ago 0xedb78495c6289c27fd37dcd33b64991f429c76620x431d29d9389a060b206db1d3f50250582cf220b50 BNB
0xbdfa86ab7e243832716bd157984dcc6b3aa6017aeb7d2d908044d80b97cfe11b83593402021-04-28 0:03:31149 days 50 mins ago 0xedb78495c6289c27fd37dcd33b64991f429c76620x431d29d9389a060b206db1d3f50250582cf220b50.20909787012165074 BNB
0x5bb250c40ec095d43d04e4125766b94bfc080a06a3a511a188338c1fde6272c283461292021-04-27 13:02:58149 days 11 hrs ago 0xedb78495c6289c27fd37dcd33b64991f429c76620x431d29d9389a060b206db1d3f50250582cf220b50 BNB
0xba912d30138609263b01e34621ebee076754f47f07822047bae874bfb2bbb69982309642021-04-23 13:04:25153 days 11 hrs ago 0x87c67ef7d8750de5f3cfca25f6c3a8b5c1b40ef80x431d29d9389a060b206db1d3f50250582cf220b50.98 BNB
0x4a68296f8df2c256603c1678264f06269841effb99927afc523f3b7681b9ae3e81944272021-04-22 6:37:34154 days 18 hrs ago 0xe0a7f5d274f2f5c448e734a225758185b52bec480x431d29d9389a060b206db1d3f50250582cf220b50.051274806482070894 BNB
[ Download CSV Export 
Loading

Contract Name:
0 BNB

Compiler Version
0

Optimization Enabled:
0 BNB

Other Settings:
-NA-
Block Transaction Gas Used Reward
Age Block Fee Address BC Fee Address Voting Power Jailed Incoming
Block Uncle Number Difficulty Gas Used Reward
Loading